sensor_id;sensor_type;location;lat;lon;timestamp;P1;durP1;ratioP1;P2;durP2;ratioP2
20287;SDS011;10303;51.960;8.372;2024-02-04T00:00:05;2.57;;;2.37;;
20287;SDS011;10303;51.960;8.372;2024-02-04T00:02:36;3.93;;;2.30;;
20287;SDS011;10303;51.960;8.372;2024-02-04T00:05:03;4.03;;;2.67;;
20287;SDS011;10303;51.960;8.372;2024-02-04T00:07:29;2.50;;;2.00;;
20287;SDS011;10303;51.960;8.372;2024-02-04T00:09:55;2.30;;;2.00;;
20287;SDS011;10303;51.960;8.372;2024-02-04T00:12:21;3.57;;;2.10;;
20287;SDS011;10303;51.960;8.372;2024-02-04T00:14:47;5.20;;;2.20;;
20287;SDS011;10303;51.960;8.372;2024-02-04T00:17:15;3.93;;;2.20;;
20287;SDS011;10303;51.960;8.372;2024-02-04T00:19:42;2.77;;;1.93;;
20287;SDS011;10303;51.960;8.372;2024-02-04T00:22:08;2.23;;;1.97;;
20287;SDS011;10303;51.960;8.372;2024-02-04T00:24:34;1.93;;;1.77;;
20287;SDS011;10303;51.960;8.372;2024-02-04T00:27:00;2.10;;;1.90;;
20287;SDS011;10303;51.960;8.372;2024-02-04T00:29:26;2.10;;;1.90;;
20287;SDS011;10303;51.960;8.372;2024-02-04T00:31:52;3.27;;;1.77;;
20287;SDS011;10303;51.960;8.372;2024-02-04T00:34:18;2.07;;;1.87;;
20287;SDS011;10303;51.960;8.372;2024-02-04T00:36:44;2.20;;;2.00;;
20287;SDS011;10303;51.960;8.372;2024-02-04T00:39:10;1.73;;;1.60;;
20287;SDS011;10303;51.960;8.372;2024-02-04T00:41:36;3.50;;;2.00;;
20287;SDS011;10303;51.960;8.372;2024-02-04T00:44:02;5.10;;;1.80;;
20287;SDS011;10303;51.960;8.372;2024-02-04T00:46:28;3.23;;;2.07;;
20287;SDS011;10303;51.960;8.372;2024-02-04T00:48:54;2.03;;;1.93;;
20287;SDS011;10303;51.960;8.372;2024-02-04T00:51:20;1.70;;;1.60;;
20287;SDS011;10303;51.960;8.372;2024-02-04T00:53:47;2.63;;;1.47;;
20287;SDS011;10303;51.960;8.372;2024-02-04T00:56:13;1.50;;;1.23;;
20287;SDS011;10303;51.960;8.372;2024-02-04T00:58:39;1.97;;;1.50;;
20287;SDS011;10303;51.960;8.372;2024-02-04T01:01:05;1.57;;;1.47;;
20287;SDS011;10303;51.960;8.372;2024-02-04T01:03:31;1.40;;;1.30;;
20287;SDS011;10303;51.960;8.372;2024-02-04T01:05:57;1.30;;;1.20;;
20287;SDS011;10303;51.960;8.372;2024-02-04T01:08:23;2.37;;;1.60;;
20287;SDS011;10303;51.960;8.372;2024-02-04T01:10:49;1.20;;;1.10;;
20287;SDS011;10303;51.960;8.372;2024-02-04T01:13:16;1.40;;;1.30;;
20287;SDS011;10303;51.960;8.372;2024-02-04T01:15:43;1.50;;;1.40;;
20287;SDS011;10303;51.960;8.372;2024-02-04T01:18:09;2.00;;;1.80;;
20287;SDS011;10303;51.960;8.372;2024-02-04T01:20:34;1.70;;;1.57;;
20287;SDS011;10303;51.960;8.372;2024-02-04T01:23:02;2.13;;;1.87;;
20287;SDS011;10303;51.960;8.372;2024-02-04T01:25:28;2.80;;;2.50;;
20287;SDS011;10303;51.960;8.372;2024-02-04T01:27:54;5.43;;;3.10;;
20287;SDS011;10303;51.960;8.372;2024-02-04T01:30:20;8.30;;;4.33;;
20287;SDS011;10303;51.960;8.372;2024-02-04T01:32:46;7.30;;;5.20;;
20287;SDS011;10303;51.960;8.372;2024-02-04T01:35:12;12.27;;;7.97;;
20287;SDS011;10303;51.960;8.372;2024-02-04T01:37:40;13.97;;;7.73;;
20287;SDS011;10303;51.960;8.372;2024-02-04T01:40:06;10.67;;;6.60;;
20287;SDS011;10303;51.960;8.372;2024-02-04T01:42:33;13.67;;;9.27;;
20287;SDS011;10303;51.960;8.372;2024-02-04T01:44:59;18.03;;;10.73;;
20287;SDS011;10303;51.960;8.372;2024-02-04T01:47:24;15.67;;;10.10;;
20287;SDS011;10303;51.960;8.372;2024-02-04T01:49:50;13.33;;;9.17;;
20287;SDS011;10303;51.960;8.372;2024-02-04T01:52:16;12.90;;;8.87;;
20287;SDS011;10303;51.960;8.372;2024-02-04T01:54:43;16.27;;;10.20;;
20287;SDS011;10303;51.960;8.372;2024-02-04T01:57:10;12.87;;;8.87;;
20287;SDS011;10303;51.960;8.372;2024-02-04T01:59:38;12.70;;;8.53;;
20287;SDS011;10303;51.960;8.372;2024-02-04T02:02:05;15.43;;;9.70;;
20287;SDS011;10303;51.960;8.372;2024-02-04T02:04:31;14.00;;;9.10;;
20287;SDS011;10303;51.960;8.372;2024-02-04T02:06:57;12.23;;;8.87;;
20287;SDS011;10303;51.960;8.372;2024-02-04T02:09:28;18.30;;;9.83;;
20287;SDS011;10303;51.960;8.372;2024-02-04T02:12:07;12.90;;;7.90;;
20287;SDS011;10303;51.960;8.372;2024-02-04T02:14:41;12.97;;;9.10;;
20287;SDS011;10303;51.960;8.372;2024-02-04T02:17:15;11.37;;;8.63;;
20287;SDS011;10303;51.960;8.372;2024-02-04T02:25:26;9.50;;;7.07;;
20287;SDS011;10303;51.960;8.372;2024-02-04T02:27:53;10.97;;;7.47;;
20287;SDS011;10303;51.960;8.372;2024-02-04T02:30:19;12.77;;;7.37;;
20287;SDS011;10303;51.960;8.372;2024-02-04T02:32:47;11.33;;;6.70;;
20287;SDS011;10303;51.960;8.372;2024-02-04T02:35:15;10.77;;;7.60;;
20287;SDS011;10303;51.960;8.372;2024-02-04T02:40:38;11.07;;;6.77;;
20287;SDS011;10303;51.960;8.372;2024-02-04T02:43:12;7.80;;;5.93;;
20287;SDS011;10303;51.960;8.372;2024-02-04T02:45:39;6.03;;;5.27;;
20287;SDS011;10303;51.960;8.372;2024-02-04T02:48:08;7.43;;;5.83;;
20287;SDS011;10303;51.960;8.372;2024-02-04T02:50:36;6.93;;;5.50;;
20287;SDS011;10303;51.960;8.372;2024-02-04T02:53:02;5.87;;;4.70;;
20287;SDS011;10303;51.960;8.372;2024-02-04T02:55:28;4.90;;;4.33;;
20287;SDS011;10303;51.960;8.372;2024-02-04T02:57:54;6.67;;;4.07;;
20287;SDS011;10303;51.960;8.372;2024-02-04T03:00:20;4.77;;;4.03;;
20287;SDS011;10303;51.960;8.372;2024-02-04T03:02:46;4.17;;;3.80;;
20287;SDS011;10303;51.960;8.372;2024-02-04T03:05:12;6.00;;;4.37;;
20287;SDS011;10303;51.960;8.372;2024-02-04T03:07:40;5.73;;;5.10;;
20287;SDS011;10303;51.960;8.372;2024-02-04T03:10:07;5.23;;;4.37;;
20287;SDS011;10303;51.960;8.372;2024-02-04T03:12:34;6.20;;;5.00;;
20287;SDS011;10303;51.960;8.372;2024-02-04T03:15:00;4.60;;;3.90;;
20287;SDS011;10303;51.960;8.372;2024-02-04T03:17:27;5.53;;;4.00;;
20287;SDS011;10303;51.960;8.372;2024-02-04T03:19:53;4.43;;;3.90;;
20287;SDS011;10303;51.960;8.372;2024-02-04T03:22:22;5.50;;;4.23;;
20287;SDS011;10303;51.960;8.372;2024-02-04T03:24:48;4.90;;;3.73;;
20287;SDS011;10303;51.960;8.372;2024-02-04T03:27:16;4.80;;;4.03;;
20287;SDS011;10303;51.960;8.372;2024-02-04T03:29:44;6.67;;;4.77;;
20287;SDS011;10303;51.960;8.372;2024-02-04T03:32:10;6.33;;;4.43;;
20287;SDS011;10303;51.960;8.372;2024-02-04T03:34:36;7.17;;;4.73;;
20287;SDS011;10303;51.960;8.372;2024-02-04T03:37:05;7.13;;;5.30;;
20287;SDS011;10303;51.960;8.372;2024-02-04T03:39:31;5.13;;;4.63;;
20287;SDS011;10303;51.960;8.372;2024-02-04T03:41:57;5.73;;;4.93;;
20287;SDS011;10303;51.960;8.372;2024-02-04T03:44:23;6.47;;;4.70;;
20287;SDS011;10303;51.960;8.372;2024-02-04T03:46:49;6.57;;;5.07;;
20287;SDS011;10303;51.960;8.372;2024-02-04T03:49:16;5.17;;;4.67;;
20287;SDS011;10303;51.960;8.372;2024-02-04T03:51:42;4.37;;;3.97;;
20287;SDS011;10303;51.960;8.372;2024-02-04T03:54:09;5.83;;;4.87;;
20287;SDS011;10303;51.960;8.372;2024-02-04T03:56:35;5.80;;;4.40;;
20287;SDS011;10303;51.960;8.372;2024-02-04T03:59:01;4.80;;;4.17;;
20287;SDS011;10303;51.960;8.372;2024-02-04T04:01:27;3.77;;;3.47;;
20287;SDS011;10303;51.960;8.372;2024-02-04T04:03:53;3.67;;;3.37;;
20287;SDS011;10303;51.960;8.372;2024-02-04T04:06:19;3.20;;;2.90;;
20287;SDS011;10303;51.960;8.372;2024-02-04T04:08:44;8.03;;;2.87;;
20287;SDS011;10303;51.960;8.372;2024-02-04T04:11:10;4.20;;;2.50;;
20287;SDS011;10303;51.960;8.372;2024-02-04T04:13:37;2.30;;;1.80;;
20287;SDS011;10303;51.960;8.372;2024-02-04T04:16:03;3.07;;;2.00;;
20287;SDS011;10303;51.960;8.372;2024-02-04T04:18:30;2.40;;;2.20;;
20287;SDS011;10303;51.960;8.372;2024-02-04T04:20:56;6.17;;;2.10;;
20287;SDS011;10303;51.960;8.372;2024-02-04T04:23:22;2.50;;;2.00;;
20287;SDS011;10303;51.960;8.372;2024-02-04T04:25:48;2.27;;;1.60;;
20287;SDS011;10303;51.960;8.372;2024-02-04T04:28:14;4.00;;;2.17;;
20287;SDS011;10303;51.960;8.372;2024-02-04T04:30:40;2.10;;;1.90;;
20287;SDS011;10303;51.960;8.372;2024-02-04T04:33:05;3.07;;;2.20;;
20287;SDS011;10303;51.960;8.372;2024-02-04T04:35:31;2.70;;;2.20;;
20287;SDS011;10303;51.960;8.372;2024-02-04T04:37:57;2.63;;;2.30;;
20287;SDS011;10303;51.960;8.372;2024-02-04T04:40:23;4.77;;;2.37;;
20287;SDS011;10303;51.960;8.372;2024-02-04T04:42:49;3.80;;;2.27;;
20287;SDS011;10303;51.960;8.372;2024-02-04T04:45:15;2.10;;;1.73;;
20287;SDS011;10303;51.960;8.372;2024-02-04T04:47:41;3.07;;;1.53;;
20287;SDS011;10303;51.960;8.372;2024-02-04T04:50:07;2.47;;;1.97;;
20287;SDS011;10303;51.960;8.372;2024-02-04T04:52:33;2.60;;;1.50;;
20287;SDS011;10303;51.960;8.372;2024-02-04T04:54:59;2.10;;;1.63;;
20287;SDS011;10303;51.960;8.372;2024-02-04T04:57:25;1.70;;;1.60;;
20287;SDS011;10303;51.960;8.372;2024-02-04T04:59:51;1.40;;;1.30;;
20287;SDS011;10303;51.960;8.372;2024-02-04T05:02:17;2.33;;;1.90;;
20287;SDS011;10303;51.960;8.372;2024-02-04T05:04:43;1.87;;;1.77;;
20287;SDS011;10303;51.960;8.372;2024-02-04T05:07:10;2.80;;;2.03;;
20287;SDS011;10303;51.960;8.372;2024-02-04T05:09:36;1.43;;;1.33;;
20287;SDS011;10303;51.960;8.372;2024-02-04T05:12:03;3.77;;;2.03;;
20287;SDS011;10303;51.960;8.372;2024-02-04T05:14:29;2.00;;;1.73;;
20287;SDS011;10303;51.960;8.372;2024-02-04T05:16:55;2.50;;;1.77;;
20287;SDS011;10303;51.960;8.372;2024-02-04T05:19:21;1.90;;;1.70;;
20287;SDS011;10303;51.960;8.372;2024-02-04T05:21:47;2.43;;;1.83;;
20287;SDS011;10303;51.960;8.372;2024-02-04T05:24:12;2.37;;;2.17;;
20287;SDS011;10303;51.960;8.372;2024-02-04T05:26:38;2.37;;;2.10;;
20287;SDS011;10303;51.960;8.372;2024-02-04T05:29:04;2.63;;;2.37;;
20287;SDS011;10303;51.960;8.372;2024-02-04T05:31:30;2.83;;;2.50;;
20287;SDS011;10303;51.960;8.372;2024-02-04T05:33:56;3.27;;;2.90;;
20287;SDS011;10303;51.960;8.372;2024-02-04T05:36:22;4.30;;;2.63;;
20287;SDS011;10303;51.960;8.372;2024-02-04T05:38:48;3.93;;;3.00;;
20287;SDS011;10303;51.960;8.372;2024-02-04T05:41:14;5.77;;;3.93;;
20287;SDS011;10303;51.960;8.372;2024-02-04T05:43:40;6.77;;;3.00;;
20287;SDS011;10303;51.960;8.372;2024-02-04T05:46:05;6.67;;;3.33;;
20287;SDS011;10303;51.960;8.372;2024-02-04T05:48:31;6.03;;;4.03;;
20287;SDS011;10303;51.960;8.372;2024-02-04T05:50:57;4.53;;;3.70;;
20287;SDS011;10303;51.960;8.372;2024-02-04T05:53:25;5.07;;;3.67;;
20287;SDS011;10303;51.960;8.372;2024-02-04T05:55:50;4.90;;;3.93;;
20287;SDS011;10303;51.960;8.372;2024-02-04T05:58:16;9.23;;;3.97;;
20287;SDS011;10303;51.960;8.372;2024-02-04T06:00:42;4.00;;;3.43;;
20287;SDS011;10303;51.960;8.372;2024-02-04T06:03:08;5.50;;;3.90;;
20287;SDS011;10303;51.960;8.372;2024-02-04T06:05:34;4.80;;;3.40;;
20287;SDS011;10303;51.960;8.372;2024-02-04T06:08:00;6.70;;;3.23;;
20287;SDS011;10303;51.960;8.372;2024-02-04T06:10:26;4.27;;;3.60;;
20287;SDS011;10303;51.960;8.372;2024-02-04T06:12:52;5.87;;;3.60;;
20287;SDS011;10303;51.960;8.372;2024-02-04T06:15:17;4.27;;;2.93;;
20287;SDS011;10303;51.960;8.372;2024-02-04T06:17:46;4.53;;;3.13;;
20287;SDS011;10303;51.960;8.372;2024-02-04T06:20:12;4.87;;;3.27;;
20287;SDS011;10303;51.960;8.372;2024-02-04T06:22:37;4.87;;;3.70;;
20287;SDS011;10303;51.960;8.372;2024-02-04T06:25:04;5.00;;;3.50;;
20287;SDS011;10303;51.960;8.372;2024-02-04T06:27:30;6.43;;;3.23;;
20287;SDS011;10303;51.960;8.372;2024-02-04T06:29:56;3.67;;;2.93;;
20287;SDS011;10303;51.960;8.372;2024-02-04T06:32:22;3.63;;;3.13;;
20287;SDS011;10303;51.960;8.372;2024-02-04T06:34:49;4.20;;;3.07;;
20287;SDS011;10303;51.960;8.372;2024-02-04T06:37:16;5.73;;;3.37;;
20287;SDS011;10303;51.960;8.372;2024-02-04T06:39:42;4.40;;;3.03;;
20287;SDS011;10303;51.960;8.372;2024-02-04T06:42:08;3.97;;;2.77;;
20287;SDS011;10303;51.960;8.372;2024-02-04T06:44:34;4.37;;;2.73;;
20287;SDS011;10303;51.960;8.372;2024-02-04T06:47:00;5.30;;;3.40;;
20287;SDS011;10303;51.960;8.372;2024-02-04T06:49:26;5.17;;;3.40;;
20287;SDS011;10303;51.960;8.372;2024-02-04T06:51:52;4.43;;;2.53;;
20287;SDS011;10303;51.960;8.372;2024-02-04T06:54:22;5.80;;;3.23;;
20287;SDS011;10303;51.960;8.372;2024-02-04T06:56:49;4.87;;;3.47;;
20287;SDS011;10303;51.960;8.372;2024-02-04T06:59:17;6.87;;;2.70;;
20287;SDS011;10303;51.960;8.372;2024-02-04T07:01:42;3.07;;;2.77;;
20287;SDS011;10303;51.960;8.372;2024-02-04T07:04:08;4.53;;;3.70;;
20287;SDS011;10303;51.960;8.372;2024-02-04T07:06:34;4.17;;;3.53;;
20287;SDS011;10303;51.960;8.372;2024-02-04T07:09:00;6.77;;;4.40;;
20287;SDS011;10303;51.960;8.372;2024-02-04T07:11:26;7.00;;;5.37;;
20287;SDS011;10303;51.960;8.372;2024-02-04T07:13:52;6.77;;;4.70;;
20287;SDS011;10303;51.960;8.372;2024-02-04T07:16:24;12.37;;;5.97;;
20287;SDS011;10303;51.960;8.372;2024-02-04T07:18:50;11.97;;;6.60;;
20287;SDS011;10303;51.960;8.372;2024-02-04T07:21:16;11.13;;;6.97;;
20287;SDS011;10303;51.960;8.372;2024-02-04T07:23:43;9.90;;;6.87;;
20287;SDS011;10303;51.960;8.372;2024-02-04T07:26:09;16.67;;;7.50;;
20287;SDS011;10303;51.960;8.372;2024-02-04T07:28:34;13.40;;;7.53;;
20287;SDS011;10303;51.960;8.372;2024-02-04T07:31:01;12.70;;;7.47;;
20287;SDS011;10303;51.960;8.372;2024-02-04T07:33:27;10.50;;;6.97;;
20287;SDS011;10303;51.960;8.372;2024-02-04T07:35:53;11.10;;;6.70;;
20287;SDS011;10303;51.960;8.372;2024-02-04T07:38:19;15.07;;;7.60;;
20287;SDS011;10303;51.960;8.372;2024-02-04T07:40:45;8.63;;;5.87;;
20287;SDS011;10303;51.960;8.372;2024-02-04T07:43:11;12.00;;;5.70;;
20287;SDS011;10303;51.960;8.372;2024-02-04T07:45:37;6.77;;;5.13;;
20287;SDS011;10303;51.960;8.372;2024-02-04T07:48:03;6.23;;;4.70;;
20287;SDS011;10303;51.960;8.372;2024-02-04T07:50:29;8.50;;;4.73;;
20287;SDS011;10303;51.960;8.372;2024-02-04T07:52:55;9.17;;;4.57;;
20287;SDS011;10303;51.960;8.372;2024-02-04T07:55:21;11.50;;;4.20;;
20287;SDS011;10303;51.960;8.372;2024-02-04T07:57:47;9.13;;;3.50;;
20287;SDS011;10303;51.960;8.372;2024-02-04T08:00:13;3.53;;;3.20;;
20287;SDS011;10303;51.960;8.372;2024-02-04T08:02:39;7.23;;;3.13;;
20287;SDS011;10303;51.960;8.372;2024-02-04T08:05:05;7.17;;;3.53;;
20287;SDS011;10303;51.960;8.372;2024-02-04T08:07:32;5.37;;;3.40;;
20287;SDS011;10303;51.960;8.372;2024-02-04T08:09:58;6.67;;;2.90;;
20287;SDS011;10303;51.960;8.372;2024-02-04T08:12:23;4.27;;;3.57;;
20287;SDS011;10303;51.960;8.372;2024-02-04T08:14:49;8.50;;;4.23;;
20287;SDS011;10303;51.960;8.372;2024-02-04T08:17:15;6.37;;;2.63;;
20287;SDS011;10303;51.960;8.372;2024-02-04T08:19:41;8.63;;;2.70;;
20287;SDS011;10303;51.960;8.372;2024-02-04T08:22:07;5.10;;;2.03;;
20287;SDS011;10303;51.960;8.372;2024-02-04T08:24:33;5.13;;;2.20;;
20287;SDS011;10303;51.960;8.372;2024-02-04T08:26:59;10.60;;;1.93;;
20287;SDS011;10303;51.960;8.372;2024-02-04T08:29:25;5.30;;;1.23;;
20287;SDS011;10303;51.960;8.372;2024-02-04T08:31:52;5.30;;;1.50;;
20287;SDS011;10303;51.960;8.372;2024-02-04T08:34:18;1.73;;;1.10;;
20287;SDS011;10303;51.960;8.372;2024-02-04T08:36:51;6.43;;;1.43;;
20287;SDS011;10303;51.960;8.372;2024-02-04T08:39:17;4.57;;;1.57;;
20287;SDS011;10303;51.960;8.372;2024-02-04T08:41:43;4.87;;;1.47;;
20287;SDS011;10303;51.960;8.372;2024-02-04T08:44:09;4.97;;;1.40;;
20287;SDS011;10303;51.960;8.372;2024-02-04T08:46:35;5.60;;;2.10;;
20287;SDS011;10303;51.960;8.372;2024-02-04T08:49:01;3.97;;;1.60;;
20287;SDS011;10303;51.960;8.372;2024-02-04T08:51:27;5.77;;;1.87;;
20287;SDS011;10303;51.960;8.372;2024-02-04T08:53:53;5.47;;;1.30;;
20287;SDS011;10303;51.960;8.372;2024-02-04T08:56:19;4.70;;;1.37;;
20287;SDS011;10303;51.960;8.372;2024-02-04T08:58:45;2.90;;;1.63;;
20287;SDS011;10303;51.960;8.372;2024-02-04T09:01:11;3.67;;;0.90;;
20287;SDS011;10303;51.960;8.372;2024-02-04T09:03:37;2.70;;;1.30;;
20287;SDS011;10303;51.960;8.372;2024-02-04T09:06:03;7.80;;;1.83;;
20287;SDS011;10303;51.960;8.372;2024-02-04T09:08:29;2.53;;;0.67;;
20287;SDS011;10303;51.960;8.372;2024-02-04T09:10:54;5.97;;;1.50;;
20287;SDS011;10303;51.960;8.372;2024-02-04T09:13:20;4.63;;;0.90;;
20287;SDS011;10303;51.960;8.372;2024-02-04T09:15:46;5.47;;;1.40;;
20287;SDS011;10303;51.960;8.372;2024-02-04T09:18:14;8.57;;;1.33;;
20287;SDS011;10303;51.960;8.372;2024-02-04T09:20:39;5.43;;;1.57;;
20287;SDS011;10303;51.960;8.372;2024-02-04T09:23:05;4.00;;;1.20;;
20287;SDS011;10303;51.960;8.372;2024-02-04T09:25:31;5.53;;;1.10;;
20287;SDS011;10303;51.960;8.372;2024-02-04T09:27:57;1.97;;;1.37;;
20287;SDS011;10303;51.960;8.372;2024-02-04T09:30:23;3.77;;;1.50;;
20287;SDS011;10303;51.960;8.372;2024-02-04T09:32:49;4.23;;;1.50;;
20287;SDS011;10303;51.960;8.372;2024-02-04T09:35:15;4.13;;;1.53;;
20287;SDS011;10303;51.960;8.372;2024-02-04T09:37:41;6.67;;;1.77;;
20287;SDS011;10303;51.960;8.372;2024-02-04T09:40:07;3.27;;;2.17;;
20287;SDS011;10303;51.960;8.372;2024-02-04T09:42:34;7.70;;;2.70;;
20287;SDS011;10303;51.960;8.372;2024-02-04T09:45:00;4.00;;;2.20;;
20287;SDS011;10303;51.960;8.372;2024-02-04T09:47:26;7.27;;;2.10;;
20287;SDS011;10303;51.960;8.372;2024-02-04T09:49:54;3.13;;;1.93;;
20287;SDS011;10303;51.960;8.372;2024-02-04T09:52:21;5.50;;;2.13;;
20287;SDS011;10303;51.960;8.372;2024-02-04T09:54:57;8.47;;;2.23;;
20287;SDS011;10303;51.960;8.372;2024-02-04T09:57:28;5.60;;;2.40;;
20287;SDS011;10303;51.960;8.372;2024-02-04T09:59:56;4.40;;;2.57;;
20287;SDS011;10303;51.960;8.372;2024-02-04T10:02:22;3.80;;;2.20;;
20287;SDS011;10303;51.960;8.372;2024-02-04T10:04:49;3.03;;;1.63;;
20287;SDS011;10303;51.960;8.372;2024-02-04T10:07:15;4.43;;;2.37;;
20287;SDS011;10303;51.960;8.372;2024-02-04T10:09:43;2.50;;;2.23;;
20287;SDS011;10303;51.960;8.372;2024-02-04T10:12:10;4.20;;;1.83;;
20287;SDS011;10303;51.960;8.372;2024-02-04T10:14:36;3.33;;;2.10;;
20287;SDS011;10303;51.960;8.372;2024-02-04T10:17:02;3.40;;;2.00;;
20287;SDS011;10303;51.960;8.372;2024-02-04T10:19:29;6.20;;;2.10;;
20287;SDS011;10303;51.960;8.372;2024-02-04T10:21:59;2.70;;;2.10;;
20287;SDS011;10303;51.960;8.372;2024-02-04T10:24:27;5.83;;;2.47;;
20287;SDS011;10303;51.960;8.372;2024-02-04T10:26:54;5.47;;;1.60;;
20287;SDS011;10303;51.960;8.372;2024-02-04T10:29:22;3.53;;;1.93;;
20287;SDS011;10303;51.960;8.372;2024-02-04T10:31:52;6.27;;;1.93;;
20287;SDS011;10303;51.960;8.372;2024-02-04T10:34:20;2.50;;;2.00;;
20287;SDS011;10303;51.960;8.372;2024-02-04T10:36:47;3.30;;;2.17;;
20287;SDS011;10303;51.960;8.372;2024-02-04T10:39:13;5.40;;;2.40;;
20287;SDS011;10303;51.960;8.372;2024-02-04T10:41:40;7.87;;;2.27;;
20287;SDS011;10303;51.960;8.372;2024-02-04T10:44:20;6.10;;;2.07;;
20287;SDS011;10303;51.960;8.372;2024-02-04T10:46:49;5.33;;;2.93;;
20287;SDS011;10303;51.960;8.372;2024-02-04T10:49:17;2.67;;;2.20;;
20287;SDS011;10303;51.960;8.372;2024-02-04T10:51:45;4.73;;;3.13;;
20287;SDS011;10303;51.960;8.372;2024-02-04T10:54:14;4.83;;;2.57;;
20287;SDS011;10303;51.960;8.372;2024-02-04T10:56:46;3.60;;;2.33;;
20287;SDS011;10303;51.960;8.372;2024-02-04T10:59:22;2.40;;;1.97;;
20287;SDS011;10303;51.960;8.372;2024-02-04T11:01:49;5.43;;;2.60;;
20287;SDS011;10303;51.960;8.372;2024-02-04T11:04:16;2.80;;;2.50;;
20287;SDS011;10303;51.960;8.372;2024-02-04T11:06:43;3.37;;;2.60;;
20287;SDS011;10303;51.960;8.372;2024-02-04T11:09:11;3.07;;;2.27;;
20287;SDS011;10303;51.960;8.372;2024-02-04T11:11:39;4.67;;;2.93;;
20287;SDS011;10303;51.960;8.372;2024-02-04T11:14:09;6.13;;;2.93;;
20287;SDS011;10303;51.960;8.372;2024-02-04T11:22:25;4.27;;;3.03;;
20287;SDS011;10303;51.960;8.372;2024-02-04T11:28:13;4.50;;;2.93;;
20287;SDS011;10303;51.960;8.372;2024-02-04T11:30:44;3.90;;;2.73;;
20287;SDS011;10303;51.960;8.372;2024-02-04T11:33:12;7.30;;;2.60;;
20287;SDS011;10303;51.960;8.372;2024-02-04T11:35:43;4.93;;;3.20;;
20287;SDS011;10303;51.960;8.372;2024-02-04T11:38:09;3.33;;;3.10;;
20287;SDS011;10303;51.960;8.372;2024-02-04T11:40:37;4.00;;;2.33;;
20287;SDS011;10303;51.960;8.372;2024-02-04T11:43:03;4.63;;;2.60;;
20287;SDS011;10303;51.960;8.372;2024-02-04T11:45:31;6.43;;;2.63;;
20287;SDS011;10303;51.960;8.372;2024-02-04T11:48:01;3.60;;;3.17;;
20287;SDS011;10303;51.960;8.372;2024-02-04T11:50:28;5.57;;;3.60;;
20287;SDS011;10303;51.960;8.372;2024-02-04T11:53:11;7.27;;;3.20;;
20287;SDS011;10303;51.960;8.372;2024-02-04T11:55:39;3.70;;;2.97;;
20287;SDS011;10303;51.960;8.372;2024-02-04T11:58:06;3.40;;;3.10;;
20287;SDS011;10303;51.960;8.372;2024-02-04T12:00:34;4.40;;;4.00;;
20287;SDS011;10303;51.960;8.372;2024-02-04T12:03:01;4.90;;;4.17;;
20287;SDS011;10303;51.960;8.372;2024-02-04T12:05:32;8.27;;;3.63;;
20287;SDS011;10303;51.960;8.372;2024-02-04T12:08:07;5.70;;;3.87;;
20287;SDS011;10303;51.960;8.372;2024-02-04T12:10:36;7.23;;;3.63;;
20287;SDS011;10303;51.960;8.372;2024-02-04T12:13:03;6.87;;;4.30;;
20287;SDS011;10303;51.960;8.372;2024-02-04T12:15:32;6.10;;;4.10;;
20287;SDS011;10303;51.960;8.372;2024-02-04T12:18:10;7.10;;;3.97;;
20287;SDS011;10303;51.960;8.372;2024-02-04T12:20:37;3.30;;;3.00;;
20287;SDS011;10303;51.960;8.372;2024-02-04T12:23:04;3.83;;;3.43;;
20287;SDS011;10303;51.960;8.372;2024-02-04T12:25:34;4.90;;;4.27;;
20287;SDS011;10303;51.960;8.372;2024-02-04T12:28:01;4.47;;;3.73;;
20287;SDS011;10303;51.960;8.372;2024-02-04T12:30:30;4.30;;;3.90;;
20287;SDS011;10303;51.960;8.372;2024-02-04T12:35:30;5.50;;;3.63;;
20287;SDS011;10303;51.960;8.372;2024-02-04T12:37:57;4.30;;;3.43;;
20287;SDS011;10303;51.960;8.372;2024-02-04T12:40:25;5.60;;;3.30;;
20287;SDS011;10303;51.960;8.372;2024-02-04T12:42:56;6.10;;;3.37;;
20287;SDS011;10303;51.960;8.372;2024-02-04T12:45:29;3.17;;;2.43;;
20287;SDS011;10303;51.960;8.372;2024-02-04T12:47:56;8.00;;;2.93;;
20287;SDS011;10303;51.960;8.372;2024-02-04T12:50:23;4.87;;;2.63;;
20287;SDS011;10303;51.960;8.372;2024-02-04T12:53:07;4.43;;;2.40;;
20287;SDS011;10303;51.960;8.372;2024-02-04T12:55:37;3.17;;;2.37;;
20287;SDS011;10303;51.960;8.372;2024-02-04T13:00:35;3.10;;;2.80;;
20287;SDS011;10303;51.960;8.372;2024-02-04T13:03:02;5.17;;;3.37;;
20287;SDS011;10303;51.960;8.372;2024-02-04T13:05:30;2.40;;;2.20;;
20287;SDS011;10303;51.960;8.372;2024-02-04T13:07:57;3.50;;;3.20;;
20287;SDS011;10303;51.960;8.372;2024-02-04T13:10:27;4.43;;;3.40;;
20287;SDS011;10303;51.960;8.372;2024-02-04T13:15:28;4.80;;;2.33;;
20287;SDS011;10303;51.960;8.372;2024-02-04T13:17:55;2.90;;;2.60;;
20287;SDS011;10303;51.960;8.372;2024-02-04T13:20:21;2.87;;;2.57;;
20287;SDS011;10303;51.960;8.372;2024-02-04T13:22:48;4.53;;;3.10;;
20287;SDS011;10303;51.960;8.372;2024-02-04T13:25:14;3.97;;;2.77;;
20287;SDS011;10303;51.960;8.372;2024-02-04T13:27:40;5.27;;;2.30;;
20287;SDS011;10303;51.960;8.372;2024-02-04T13:30:06;2.67;;;2.40;;
20287;SDS011;10303;51.960;8.372;2024-02-04T13:32:40;2.60;;;2.40;;
20287;SDS011;10303;51.960;8.372;2024-02-04T13:35:07;2.60;;;2.20;;
20287;SDS011;10303;51.960;8.372;2024-02-04T13:37:35;4.13;;;2.20;;
20287;SDS011;10303;51.960;8.372;2024-02-04T13:40:03;3.17;;;1.97;;
20287;SDS011;10303;51.960;8.372;2024-02-04T13:42:31;2.47;;;2.27;;
20287;SDS011;10303;51.960;8.372;2024-02-04T13:45:00;3.67;;;2.47;;
20287;SDS011;10303;51.960;8.372;2024-02-04T13:47:27;3.60;;;3.30;;
20287;SDS011;10303;51.960;8.372;2024-02-04T13:49:53;2.13;;;1.93;;
20287;SDS011;10303;51.960;8.372;2024-02-04T13:52:19;2.33;;;2.13;;
20287;SDS011;10303;51.960;8.372;2024-02-04T13:54:46;3.73;;;2.13;;
20287;SDS011;10303;51.960;8.372;2024-02-04T13:57:11;2.17;;;2.07;;
20287;SDS011;10303;51.960;8.372;2024-02-04T13:59:37;2.53;;;1.77;;
20287;SDS011;10303;51.960;8.372;2024-02-04T14:02:03;2.20;;;1.77;;
20287;SDS011;10303;51.960;8.372;2024-02-04T14:04:30;1.87;;;1.73;;
20287;SDS011;10303;51.960;8.372;2024-02-04T14:06:56;1.40;;;1.30;;
20287;SDS011;10303;51.960;8.372;2024-02-04T14:09:22;1.40;;;1.30;;
20287;SDS011;10303;51.960;8.372;2024-02-04T14:11:48;1.47;;;1.30;;
20287;SDS011;10303;51.960;8.372;2024-02-04T14:14:14;1.37;;;1.27;;
20287;SDS011;10303;51.960;8.372;2024-02-04T14:16:40;2.17;;;1.50;;
20287;SDS011;10303;51.960;8.372;2024-02-04T14:19:06;1.20;;;1.10;;
20287;SDS011;10303;51.960;8.372;2024-02-04T14:21:32;3.80;;;1.50;;
20287;SDS011;10303;51.960;8.372;2024-02-04T14:23:58;2.20;;;1.80;;
20287;SDS011;10303;51.960;8.372;2024-02-04T14:26:24;2.57;;;1.47;;
20287;SDS011;10303;51.960;8.372;2024-02-04T14:28:50;1.97;;;1.77;;
20287;SDS011;10303;51.960;8.372;2024-02-04T14:31:16;1.70;;;1.60;;
20287;SDS011;10303;51.960;8.372;2024-02-04T14:33:43;1.77;;;1.53;;
20287;SDS011;10303;51.960;8.372;2024-02-04T14:36:09;3.67;;;2.03;;
20287;SDS011;10303;51.960;8.372;2024-02-04T14:38:35;2.63;;;1.97;;
20287;SDS011;10303;51.960;8.372;2024-02-04T14:41:04;1.70;;;1.60;;
20287;SDS011;10303;51.960;8.372;2024-02-04T14:43:30;3.20;;;1.80;;
20287;SDS011;10303;51.960;8.372;2024-02-04T14:45:56;2.20;;;1.53;;
20287;SDS011;10303;51.960;8.372;2024-02-04T14:48:23;3.57;;;2.17;;
20287;SDS011;10303;51.960;8.372;2024-02-04T14:50:49;1.97;;;1.83;;
20287;SDS011;10303;51.960;8.372;2024-02-04T14:53:15;3.73;;;1.77;;
20287;SDS011;10303;51.960;8.372;2024-02-04T14:55:41;2.57;;;2.23;;
20287;SDS011;10303;51.960;8.372;2024-02-04T14:58:08;5.07;;;1.70;;
20287;SDS011;10303;51.960;8.372;2024-02-04T15:00:34;4.13;;;2.23;;
20287;SDS011;10303;51.960;8.372;2024-02-04T15:03:00;1.97;;;1.77;;
20287;SDS011;10303;51.960;8.372;2024-02-04T15:05:26;1.50;;;1.40;;
20287;SDS011;10303;51.960;8.372;2024-02-04T15:07:52;2.50;;;1.90;;